createdAt,value
2018-12-22T00:00:53.827Z,250.70
2018-12-22T00:03:23.460Z,260.00
2018-12-22T00:05:53.260Z,251.57
2018-12-22T00:08:22.908Z,250.83
2018-12-22T00:10:52.561Z,181.20
2018-12-22T00:13:22.387Z,203.90
2018-12-22T00:15:52.007Z,232.60
2018-12-22T00:18:21.708Z,212.47
2018-12-22T00:20:51.410Z,201.73
2018-12-22T00:23:21.105Z,205.03
2018-12-22T00:25:50.842Z,174.00
2018-12-22T00:28:22.341Z,166.50
2018-12-22T00:30:52.207Z,179.80
2018-12-22T00:33:21.919Z,173.27
2018-12-22T00:35:51.433Z,169.43
2018-12-22T00:38:21.092Z,123.27
2018-12-22T00:40:50.925Z,124.23
2018-12-22T00:43:20.856Z,143.03
2018-12-22T00:45:50.505Z,139.67
2018-12-22T00:48:20.110Z,130.97
2018-12-22T00:50:49.707Z,132.00
2018-12-22T00:53:19.379Z,124.57
2018-12-22T00:55:49.235Z,119.73
2018-12-22T00:58:18.883Z,116.83
2018-12-22T01:00:48.511Z,107.43
2018-12-22T01:03:19.202Z,109.03
2018-12-22T01:05:50.050Z,113.47
2018-12-22T01:08:19.673Z,110.20
2018-12-22T01:10:49.450Z,109.33
2018-12-22T01:13:19.260Z,103.97
2018-12-22T01:15:48.994Z,100.97
2018-12-22T01:18:18.808Z,95.23
2018-12-22T01:20:48.358Z,90.27
2018-12-22T01:23:17.977Z,96.77
2018-12-22T01:25:47.831Z,100.60
2018-12-22T01:28:17.446Z,88.10
2018-12-22T01:30:47.196Z,84.47
2018-12-22T01:33:16.894Z,86.30
2018-12-22T01:35:46.678Z,80.53
2018-12-22T01:38:16.210Z,79.20
2018-12-22T01:40:45.786Z,82.07
2018-12-22T01:43:15.558Z,81.20
2018-12-22T01:45:45.175Z,77.00
2018-12-22T01:48:14.744Z,77.90
2018-12-22T01:50:44.412Z,76.87
2018-12-22T01:53:13.892Z,80.67
2018-12-22T01:55:43.658Z,82.63
2018-12-22T01:58:13.152Z,84.17
2018-12-22T02:00:42.873Z,79.00
2018-12-22T02:03:12.394Z,82.13
2018-12-22T02:05:41.886Z,82.63
2018-12-22T02:08:11.516Z,84.33
2018-12-22T02:10:41.161Z,87.13
2018-12-22T02:13:10.872Z,83.33
2018-12-22T02:15:40.675Z,82.90
2018-12-22T02:18:10.378Z,80.63
2018-12-22T02:20:39.937Z,81.30
2018-12-22T02:23:09.604Z,84.90
2018-12-22T02:25:39.171Z,81.57
2018-12-22T02:28:08.989Z,81.53
2018-12-22T02:30:38.760Z,85.10
2018-12-22T02:33:08.379Z,83.60
2018-12-22T02:35:38.242Z,84.70
2018-12-22T02:38:07.879Z,88.27
2018-12-22T02:40:37.605Z,88.83
2018-12-22T02:43:07.282Z,84.00
2018-12-22T02:45:37.190Z,90.43
2018-12-22T02:48:06.908Z,90.30
2018-12-22T02:50:36.508Z,89.27
2018-12-22T02:53:06.193Z,88.87
2018-12-22T02:55:35.692Z,85.37
2018-12-22T02:58:05.264Z,89.93
2018-12-22T03:00:35.049Z,84.50
2018-12-22T03:03:04.730Z,92.23
2018-12-22T03:05:34.312Z,90.57
2018-12-22T03:08:03.927Z,90.83
2018-12-22T03:10:34.632Z,92.47
2018-12-22T03:13:04.265Z,88.40
2018-12-22T03:15:34.059Z,89.47
2018-12-22T03:18:03.819Z,86.93
2018-12-22T03:20:33.653Z,88.50
2018-12-22T03:23:03.525Z,89.33
2018-12-22T03:25:33.395Z,83.87
2018-12-22T03:28:03.135Z,86.73
2018-12-22T03:30:33.183Z,82.57
2018-12-22T03:33:02.891Z,84.17
2018-12-22T03:35:33.185Z,87.60
2018-12-22T03:38:02.766Z,85.10
2018-12-22T03:40:32.319Z,82.73
2018-12-22T03:43:01.960Z,85.17
2018-12-22T03:45:31.442Z,85.50
2018-12-22T03:48:00.973Z,77.93
2018-12-22T03:50:30.475Z,77.53
2018-12-22T03:53:00.017Z,78.73
2018-12-22T03:55:29.657Z,75.30
2018-12-22T03:57:59.466Z,73.43
2018-12-22T04:00:29.074Z,74.67
2018-12-22T04:02:58.838Z,72.70
2018-12-22T04:05:28.451Z,75.10
2018-12-22T04:07:58.327Z,72.73
2018-12-22T04:10:27.803Z,76.43
2018-12-22T04:12:57.444Z,76.30
2018-12-22T04:15:26.966Z,67.80
2018-12-22T04:17:56.547Z,66.97
2018-12-22T04:20:26.213Z,68.17
2018-12-22T04:22:55.862Z,67.23
2018-12-22T04:25:25.458Z,71.93
2018-12-22T04:27:55.292Z,62.93
2018-12-22T04:30:24.879Z,66.10
2018-12-22T04:32:54.349Z,70.93
2018-12-22T04:35:23.928Z,69.03
2018-12-22T04:37:53.565Z,64.03
2018-12-22T04:40:23.226Z,68.00
2018-12-22T04:42:52.873Z,67.63
2018-12-22T04:45:22.521Z,68.57
2018-12-22T04:47:52.170Z,71.40
2018-12-22T04:50:21.756Z,67.50
2018-12-22T04:52:51.385Z,64.57
2018-12-22T04:55:20.989Z,67.47
2018-12-22T04:57:50.646Z,76.47
2018-12-22T05:00:20.272Z,72.73
2018-12-22T05:02:50.064Z,75.37
2018-12-22T05:05:19.480Z,74.17
2018-12-22T05:07:48.989Z,68.87
2018-12-22T05:10:18.503Z,77.43
2018-12-22T05:12:48.200Z,63.10
2018-12-22T05:15:17.704Z,66.13
2018-12-22T05:17:47.352Z,82.90
2018-12-22T05:20:17.100Z,67.03
2018-12-22T05:22:46.706Z,67.00
2018-12-22T05:25:16.332Z,71.60
2018-12-22T05:27:45.924Z,65.17
2018-12-22T05:30:15.495Z,84.20
2018-12-22T05:32:45.264Z,65.67
2018-12-22T05:35:15.186Z,70.87
2018-12-22T05:37:44.749Z,69.87
2018-12-22T05:40:14.420Z,78.70
2018-12-22T05:42:44.067Z,76.43
2018-12-22T05:45:13.686Z,78.93
2018-12-22T05:47:43.183Z,81.13
2018-12-22T05:50:12.983Z,80.67
2018-12-22T05:52:42.816Z,81.27
2018-12-22T05:55:12.480Z,72.57
2018-12-22T05:57:42.127Z,72.73
2018-12-22T06:00:11.828Z,83.60
2018-12-22T06:02:41.630Z,72.00
2018-12-22T06:05:12.174Z,77.00
2018-12-22T06:07:41.701Z,79.97
2018-12-22T06:10:11.215Z,66.50
2018-12-22T06:12:40.719Z,68.80
2018-12-22T06:15:10.389Z,66.23
2018-12-22T06:17:40.110Z,63.30
2018-12-22T06:20:11.042Z,67.80
2018-12-22T06:22:40.751Z,64.20
2018-12-22T06:25:10.237Z,68.30
2018-12-22T06:27:39.749Z,61.77
2018-12-22T06:30:09.619Z,70.10
2018-12-22T06:32:40.437Z,63.37
2018-12-22T06:35:10.025Z,61.27
2018-12-22T06:37:39.842Z,63.70
2018-12-22T06:40:09.356Z,66.00
2018-12-22T06:42:38.951Z,66.23
2018-12-22T06:45:08.620Z,67.57
2018-12-22T06:47:38.351Z,60.03
2018-12-22T06:50:08.137Z,73.37
2018-12-22T06:52:37.933Z,69.40
2018-12-22T06:55:08.507Z,76.17
2018-12-22T06:57:38.094Z,69.03
2018-12-22T07:00:08.444Z,75.57
2018-12-22T07:02:38.071Z,73.07
2018-12-22T07:05:07.952Z,70.80
2018-12-22T07:07:37.422Z,69.87
2018-12-22T07:10:08.679Z,80.07
2018-12-22T07:12:38.226Z,77.77
2018-12-22T07:15:08.241Z,78.20
2018-12-22T07:17:37.906Z,86.60
2018-12-22T07:20:07.972Z,81.17
2018-12-22T07:22:37.705Z,80.90
2018-12-22T07:25:07.843Z,80.53
2018-12-22T07:27:37.681Z,82.30
2018-12-22T07:30:09.140Z,85.47
2018-12-22T07:32:38.815Z,88.27
2018-12-22T07:35:08.378Z,91.30
2018-12-22T07:37:38.107Z,89.20
2018-12-22T07:40:07.751Z,87.60
2018-12-22T07:42:39.372Z,88.63
2018-12-22T07:45:09.153Z,89.47
2018-12-22T07:47:38.723Z,89.97
2018-12-22T07:50:08.403Z,89.40
2018-12-22T07:52:38.246Z,90.03
2018-12-22T07:55:07.717Z,87.20
2018-12-22T07:57:37.418Z,87.93
2018-12-22T08:00:07.387Z,88.70
2018-12-22T08:02:37.240Z,88.83
2018-12-22T08:05:07.233Z,86.77
2018-12-22T08:07:37.035Z,82.50
2018-12-22T08:10:07.352Z,87.17
2018-12-22T08:12:37.121Z,83.03
2018-12-22T08:15:07.087Z,80.57
2018-12-22T08:17:37.405Z,81.43
2018-12-22T08:20:07.448Z,80.80
2018-12-22T08:22:37.030Z,82.80
2018-12-22T08:25:07.150Z,82.60
2018-12-22T08:27:36.971Z,87.97
2018-12-22T08:30:07.671Z,82.60
2018-12-22T08:32:37.495Z,83.97
2018-12-22T08:35:07.218Z,78.60
2018-12-22T08:37:36.935Z,76.37
2018-12-22T08:40:07.977Z,79.70
2018-12-22T08:42:37.688Z,79.57
2018-12-22T08:45:08.496Z,76.60
2018-12-22T08:47:38.154Z,72.10
2018-12-22T08:50:09.631Z,76.10
2018-12-22T08:52:56.367Z,73.13
2018-12-22T08:55:26.309Z,72.03
2018-12-22T08:57:56.105Z,73.73
2018-12-22T09:00:25.467Z,73.07
2018-12-22T09:02:55.210Z,71.23
2018-12-22T09:05:25.107Z,75.73
2018-12-22T09:07:54.957Z,74.37
2018-12-22T09:10:24.429Z,73.47
2018-12-22T09:12:54.076Z,70.97
2018-12-22T09:15:24.667Z,75.60
2018-12-22T09:17:54.202Z,75.27
2018-12-22T09:20:23.765Z,72.70
2018-12-22T09:22:53.411Z,72.43
2018-12-22T09:25:23.095Z,72.40
2018-12-22T09:27:53.357Z,72.50
2018-12-22T09:30:23.121Z,74.67
2018-12-22T09:32:52.816Z,75.90
2018-12-22T09:35:22.440Z,72.47
2018-12-22T09:37:52.073Z,75.17
2018-12-22T09:40:21.789Z,75.53
2018-12-22T09:42:51.244Z,75.73
2018-12-22T09:45:20.870Z,74.00
2018-12-22T09:47:50.342Z,79.00
2018-12-22T09:50:20.208Z,76.07
2018-12-22T09:52:49.592Z,80.87
2018-12-22T09:55:19.197Z,83.30
2018-12-22T09:57:48.786Z,84.73
2018-12-22T10:00:18.446Z,81.43
2018-12-22T10:02:48.068Z,86.63
2018-12-22T10:05:17.777Z,81.90
2018-12-22T10:07:47.590Z,82.17
2018-12-22T10:10:18.726Z,83.30
2018-12-22T10:12:48.587Z,92.70
2018-12-22T10:15:18.224Z,93.03
2018-12-22T10:17:47.734Z,92.60
2018-12-22T10:20:17.765Z,95.43
2018-12-22T10:22:47.532Z,99.13
2018-12-22T10:25:17.825Z,100.70
2018-12-22T10:27:47.444Z,95.67
2018-12-22T10:30:18.224Z,102.53
2018-12-22T10:32:47.840Z,103.27
2018-12-22T10:35:23.626Z,99.20
2018-12-22T10:37:53.427Z,98.37
2018-12-22T10:40:22.944Z,96.93
2018-12-22T10:42:52.569Z,93.40
2018-12-22T10:45:22.106Z,100.30
2018-12-22T10:47:51.817Z,96.67
2018-12-22T10:50:21.383Z,90.63
2018-12-22T10:52:51.110Z,87.93
2018-12-22T10:55:20.961Z,93.97
2018-12-22T10:57:50.760Z,89.97
2018-12-22T11:00:20.566Z,90.20
2018-12-22T11:02:50.260Z,88.27
2018-12-22T11:05:19.999Z,89.57
2018-12-22T11:07:50.034Z,92.33
2018-12-22T11:10:26.448Z,88.83
2018-12-22T11:12:59.244Z,87.80
2018-12-22T11:15:29.025Z,92.23
2018-12-22T11:17:58.612Z,92.67
2018-12-22T11:20:28.128Z,95.83
2018-12-22T11:22:57.799Z,92.50
2018-12-22T11:25:27.845Z,94.20
2018-12-22T11:27:57.499Z,96.93
2018-12-22T11:30:31.341Z,96.17
2018-12-22T11:33:03.280Z,93.13
2018-12-22T11:35:32.880Z,93.50
2018-12-22T11:38:02.681Z,97.10
2018-12-22T11:40:32.188Z,95.03
2018-12-22T11:43:01.705Z,95.77
2018-12-22T11:45:31.291Z,98.10
2018-12-22T11:48:13.480Z,98.77
2018-12-22T11:50:43.239Z,99.40
2018-12-22T11:53:13.080Z,97.07
2018-12-22T11:55:42.958Z,117.90
2018-12-22T11:58:12.623Z,102.47
2018-12-22T12:00:42.277Z,101.87
2018-12-22T12:03:12.327Z,104.03
2018-12-22T12:05:41.964Z,102.13
2018-12-22T12:08:11.529Z,102.43
2018-12-22T12:10:41.361Z,98.73
2018-12-22T12:13:11.190Z,98.73
2018-12-22T12:16:19.904Z,107.47
2018-12-22T12:18:59.383Z,106.70
2018-12-22T12:21:29.443Z,100.03
2018-12-22T12:24:00.466Z,104.23
2018-12-22T12:26:30.442Z,107.87
2018-12-22T12:29:01.512Z,102.47
2018-12-22T12:31:31.294Z,104.47
2018-12-22T12:34:00.845Z,105.10
2018-12-22T12:36:30.435Z,101.60
2018-12-22T12:39:00.141Z,104.60
2018-12-22T12:41:30.128Z,102.93
2018-12-22T12:43:59.713Z,101.60
2018-12-22T12:46:45.500Z,104.53
2018-12-22T12:49:15.500Z,105.60
2018-12-22T12:51:45.107Z,108.00
2018-12-22T12:54:14.805Z,110.47
2018-12-22T12:56:50.799Z,115.43
2018-12-22T12:59:20.531Z,114.83
2018-12-22T13:01:50.413Z,110.57
2018-12-22T13:04:19.989Z,111.73
2018-12-22T13:06:49.741Z,118.77
2018-12-22T13:09:19.401Z,114.40
2018-12-22T13:11:49.759Z,112.90
2018-12-22T13:14:21.865Z,122.80
2018-12-22T13:16:51.341Z,109.17
2018-12-22T13:19:21.564Z,112.33
2018-12-22T13:21:52.936Z,110.47
2018-12-22T13:24:22.474Z,113.53
2018-12-22T13:26:52.055Z,115.83
2018-12-22T13:29:21.664Z,115.83
2018-12-22T13:31:51.229Z,118.07
2018-12-22T13:34:20.818Z,111.03
2018-12-22T13:36:50.489Z,113.83
2018-12-22T13:39:27.658Z,109.67
2018-12-22T13:41:57.255Z,113.23
2018-12-22T13:44:28.015Z,115.53
2018-12-22T13:46:57.569Z,112.37
2018-12-22T13:49:27.701Z,112.43
2018-12-22T13:51:57.818Z,115.27
2018-12-22T13:54:27.730Z,119.47
2018-12-22T13:56:57.453Z,119.53
2018-12-22T13:59:27.114Z,118.37
2018-12-22T14:02:01.291Z,118.30
2018-12-22T14:04:32.269Z,122.70
2018-12-22T14:07:02.811Z,120.03
2018-12-22T14:09:32.628Z,120.37
2018-12-22T14:12:02.165Z,120.30
2018-12-22T14:14:35.201Z,116.93
2018-12-22T14:17:15.261Z,120.37
2018-12-22T14:19:49.384Z,117.08
2018-12-22T14:22:19.114Z,118.17
2018-12-22T14:24:50.836Z,118.70
2018-12-22T14:27:20.559Z,121.23
2018-12-22T14:29:51.251Z,121.83
2018-12-22T14:32:26.846Z,128.83
2018-12-22T14:35:59.400Z,124.37
2018-12-22T14:38:29.770Z,125.07
2018-12-22T14:40:59.397Z,133.77
2018-12-22T14:43:29.093Z,126.67
2018-12-22T14:47:01.692Z,130.23
2018-12-22T14:49:31.297Z,124.30
2018-12-22T14:52:00.952Z,123.60
2018-12-22T14:54:30.522Z,121.00
2018-12-22T14:57:00.213Z,122.20
2018-12-22T14:59:29.749Z,125.07
2018-12-22T15:02:01.180Z,116.27
2018-12-22T15:04:31.190Z,119.43
2018-12-22T15:07:00.851Z,120.90
2018-12-22T15:09:30.506Z,129.10
2018-12-22T15:12:00.175Z,118.30
2018-12-22T15:14:29.734Z,123.60
2018-12-22T15:16:59.561Z,122.27
2018-12-22T15:19:29.186Z,125.07
2018-12-22T15:22:01.330Z,122.80
2018-12-22T15:24:30.992Z,125.80
2018-12-22T15:27:00.369Z,119.90
2018-12-22T15:29:29.888Z,122.53
2018-12-22T15:31:59.532Z,128.17
2018-12-22T15:34:29.157Z,126.97
2018-12-22T15:36:58.893Z,123.27
2018-12-22T15:39:28.662Z,132.87
2018-12-22T15:41:58.284Z,139.63
2018-12-22T15:44:27.960Z,158.00
2018-12-22T15:46:57.644Z,140.80
2018-12-22T15:49:27.609Z,134.53
2018-12-22T15:51:57.370Z,179.97
2018-12-22T15:54:26.810Z,134.00
2018-12-22T15:56:56.414Z,137.33
2018-12-22T15:59:26.180Z,135.13
2018-12-22T16:01:55.749Z,136.07
2018-12-22T16:04:25.526Z,130.67
2018-12-22T16:06:55.251Z,135.03
2018-12-22T16:09:24.817Z,139.87
2018-12-22T16:11:54.507Z,137.33
2018-12-22T16:14:24.150Z,136.00
2018-12-22T16:16:53.833Z,132.93
2018-12-22T16:19:23.608Z,136.67
2018-12-22T16:21:53.345Z,133.13
2018-12-22T16:24:23.284Z,136.70
2018-12-22T16:26:53.304Z,141.67
2018-12-22T16:29:31.733Z,130.20
2018-12-22T16:32:01.466Z,142.47
2018-12-22T16:34:31.083Z,135.13
2018-12-22T16:37:00.676Z,141.43
2018-12-22T16:39:30.297Z,135.97
2018-12-22T16:42:00.312Z,137.20
2018-12-22T16:44:29.918Z,140.23
2018-12-22T16:46:59.792Z,138.50
2018-12-22T16:49:29.500Z,137.27
2018-12-22T16:51:59.138Z,135.40
2018-12-22T16:54:28.808Z,135.27
2018-12-22T16:56:58.463Z,140.37
2018-12-22T16:59:29.633Z,142.23
2018-12-22T17:02:06.528Z,131.33
2018-12-22T17:04:36.651Z,122.37
2018-12-22T17:07:06.290Z,120.53
2018-12-22T17:09:35.857Z,116.23
2018-12-22T17:12:05.527Z,113.30
2018-12-22T17:14:35.100Z,115.13
2018-12-22T17:17:05.049Z,119.37
2018-12-22T17:19:34.611Z,114.30
2018-12-22T17:22:14.248Z,109.23
2018-12-22T17:24:50.953Z,112.57
2018-12-22T17:27:20.498Z,114.13
2018-12-22T17:29:49.974Z,124.60
2018-12-22T17:32:19.532Z,128.87
2018-12-22T17:34:49.304Z,127.80
2018-12-22T17:37:19.306Z,143.70
2018-12-22T17:39:53.537Z,134.17
2018-12-22T17:42:21.022Z,134.20
2018-12-22T17:44:50.513Z,129.37
2018-12-22T17:47:20.326Z,154.40
2018-12-22T17:49:49.766Z,150.90
2018-12-22T17:52:19.478Z,139.50
2018-12-22T17:54:49.210Z,120.90
2018-12-22T17:57:18.762Z,116.03
2018-12-22T17:59:48.403Z,111.77
2018-12-22T18:02:18.058Z,111.43
2018-12-22T18:04:47.646Z,124.33
2018-12-22T18:07:17.213Z,128.40
2018-12-22T18:09:46.749Z,134.07
2018-12-22T18:12:16.318Z,135.47
2018-12-22T18:14:45.964Z,130.93
2018-12-22T18:17:15.798Z,138.07
2018-12-22T18:19:45.379Z,146.60
2018-12-22T18:22:15.101Z,145.90
2018-12-22T18:24:44.636Z,143.20
2018-12-22T18:27:14.027Z,138.43
2018-12-22T18:29:43.792Z,145.87
2018-12-22T18:32:13.488Z,142.53
2018-12-22T18:34:43.262Z,148.03
2018-12-22T18:37:12.859Z,145.27
2018-12-22T18:39:42.566Z,141.07
2018-12-22T18:42:12.208Z,143.73
2018-12-22T18:44:42.078Z,147.60
2018-12-22T18:47:11.716Z,154.07
2018-12-22T18:49:41.205Z,148.40
2018-12-22T18:52:10.807Z,150.57
2018-12-22T18:54:41.057Z,151.83
2018-12-22T18:57:10.553Z,160.13
2018-12-22T18:59:40.048Z,147.17
2018-12-22T19:02:09.714Z,146.23
2018-12-22T19:04:39.278Z,145.17
2018-12-22T19:07:08.924Z,138.60
2018-12-22T19:09:39.965Z,131.50
2018-12-22T19:12:16.214Z,140.33
2018-12-22T19:15:00.255Z,141.30
2018-12-22T19:17:29.949Z,135.03
2018-12-22T19:19:59.681Z,134.93
2018-12-22T19:22:29.403Z,132.67
2018-12-22T19:24:59.077Z,137.80
2018-12-22T19:27:28.672Z,128.53
2018-12-22T19:29:58.219Z,116.97
2018-12-22T19:32:27.873Z,116.07
2018-12-22T19:34:57.633Z,105.90
2018-12-22T19:37:27.282Z,97.67
2018-12-22T19:39:56.685Z,95.30
2018-12-22T19:42:26.376Z,96.20
2018-12-22T19:44:55.956Z,98.60
2018-12-22T19:47:25.527Z,101.27
2018-12-22T19:49:55.048Z,97.93
2018-12-22T19:52:24.584Z,88.77
2018-12-22T19:54:54.340Z,94.63
2018-12-22T19:57:24.375Z,97.57
2018-12-22T19:59:54.044Z,93.47
2018-12-22T20:02:23.628Z,95.37
2018-12-22T20:04:53.369Z,94.53
2018-12-22T20:07:22.983Z,93.50
2018-12-22T20:09:52.795Z,93.97
2018-12-22T20:12:22.488Z,95.33
2018-12-22T20:14:52.002Z,97.27
2018-12-22T20:17:21.560Z,95.23
2018-12-22T20:19:51.223Z,92.37
2018-12-22T20:22:20.805Z,96.97
2018-12-22T20:24:50.537Z,92.57
2018-12-22T20:27:20.223Z,105.60
2018-12-22T20:29:49.988Z,137.77
2018-12-22T20:32:19.515Z,138.53
2018-12-22T20:34:49.112Z,136.17
2018-12-22T20:37:18.869Z,147.30
2018-12-22T20:39:48.890Z,147.13
2018-12-22T20:42:18.489Z,136.53
2018-12-22T20:44:48.012Z,144.63
2018-12-22T20:47:17.578Z,137.23
2018-12-22T20:49:47.333Z,152.37
2018-12-22T20:52:17.019Z,137.73
2018-12-22T20:54:46.634Z,138.77
2018-12-22T20:57:16.170Z,136.53
2018-12-22T20:59:46.567Z,142.47
2018-12-22T21:02:16.142Z,140.10
2018-12-22T21:04:45.833Z,137.67
2018-12-22T21:07:15.720Z,147.53
2018-12-22T21:09:45.414Z,138.87
2018-12-22T21:12:14.931Z,143.90
2018-12-22T21:14:44.436Z,138.83
2018-12-22T21:17:14.080Z,134.60
2018-12-22T21:19:43.768Z,134.87
2018-12-22T21:22:13.318Z,132.37
2018-12-22T21:24:42.927Z,126.10
2018-12-22T21:27:12.719Z,149.00
2018-12-22T21:29:42.426Z,135.13
2018-12-22T21:32:11.974Z,144.03
2018-12-22T21:34:41.323Z,162.90
2018-12-22T21:37:11.068Z,139.20
2018-12-22T21:39:40.664Z,142.13
2018-12-22T21:42:10.179Z,133.83
2018-12-22T21:44:39.596Z,147.70
2018-12-22T21:47:09.065Z,137.57
2018-12-22T21:49:38.651Z,148.23
2018-12-22T21:52:08.307Z,142.30
2018-12-22T21:54:37.791Z,136.47
2018-12-22T21:57:07.340Z,135.80
2018-12-22T21:59:36.874Z,130.03
2018-12-22T22:02:06.499Z,149.03
2018-12-22T22:04:37.091Z,130.90
2018-12-22T22:07:07.077Z,131.20
2018-12-22T22:09:36.624Z,129.03
2018-12-22T22:12:06.229Z,126.47
2018-12-22T22:14:36.756Z,121.00
2018-12-22T22:17:06.288Z,116.33
2018-12-22T22:19:36.491Z,134.00
2018-12-22T22:22:06.139Z,132.87
2018-12-22T22:24:35.654Z,123.60
2018-12-22T22:27:05.054Z,130.43
2018-12-22T22:29:34.563Z,138.47
2018-12-22T22:32:04.190Z,129.37
2018-12-22T22:34:33.652Z,155.00
2018-12-22T22:37:03.281Z,136.40
2018-12-22T22:39:34.019Z,127.20
2018-12-22T22:42:03.519Z,134.80
2018-12-22T22:44:33.059Z,137.93
2018-12-22T22:47:02.690Z,125.67
2018-12-22T22:49:32.326Z,113.57
2018-12-22T22:52:01.906Z,143.43
2018-12-22T22:54:31.467Z,150.53
2018-12-22T22:57:00.932Z,130.37
2018-12-22T22:59:30.414Z,127.03
2018-12-22T23:01:59.947Z,121.77
2018-12-22T23:04:29.774Z,126.73
2018-12-22T23:06:59.081Z,121.03
2018-12-22T23:09:28.651Z,126.40
2018-12-22T23:11:58.214Z,132.47
2018-12-22T23:14:27.875Z,127.37
2018-12-22T23:16:57.378Z,130.03
2018-12-22T23:19:26.963Z,132.93
2018-12-22T23:21:56.467Z,131.63
2018-12-22T23:24:25.949Z,146.60
2018-12-22T23:26:55.402Z,133.10
2018-12-22T23:29:24.872Z,133.70
2018-12-22T23:31:54.505Z,127.93
2018-12-22T23:34:24.065Z,131.23
2018-12-22T23:36:53.594Z,127.23
2018-12-22T23:39:23.130Z,129.60
2018-12-22T23:41:52.650Z,125.00
2018-12-22T23:44:22.234Z,132.03
2018-12-22T23:46:51.936Z,129.60
2018-12-22T23:49:21.569Z,129.30
2018-12-22T23:51:51.165Z,132.53
2018-12-22T23:54:20.778Z,125.47
2018-12-22T23:56:50.303Z,128.07
2018-12-22T23:59:19.879Z,127.93
